sensor_id;sensor_type;location;lat;lon;timestamp;P1;durP1;ratioP1;P2;durP2;ratioP2
10260;SDS011;5175;42.606;23.388;2023-12-28T00:01:49;5.93;;;4.33;;
10260;SDS011;5175;42.606;23.388;2023-12-28T00:04:17;7.60;;;5.43;;
10260;SDS011;5175;42.606;23.388;2023-12-28T00:06:44;8.77;;;6.80;;
10260;SDS011;5175;42.606;23.388;2023-12-28T00:09:11;14.73;;;11.17;;
10260;SDS011;5175;42.606;23.388;2023-12-28T00:11:38;11.77;;;9.40;;
10260;SDS011;5175;42.606;23.388;2023-12-28T00:14:04;8.77;;;6.77;;
10260;SDS011;5175;42.606;23.388;2023-12-28T00:16:31;7.77;;;5.30;;
10260;SDS011;5175;42.606;23.388;2023-12-28T00:18:59;6.03;;;4.60;;
10260;SDS011;5175;42.606;23.388;2023-12-28T00:21:28;6.63;;;4.63;;
10260;SDS011;5175;42.606;23.388;2023-12-28T00:23:55;6.43;;;4.80;;
10260;SDS011;5175;42.606;23.388;2023-12-28T00:26:22;6.20;;;4.93;;
10260;SDS011;5175;42.606;23.388;2023-12-28T00:28:48;5.30;;;4.77;;
10260;SDS011;5175;42.606;23.388;2023-12-28T00:31:15;5.43;;;4.20;;
10260;SDS011;5175;42.606;23.388;2023-12-28T00:33:42;4.10;;;3.70;;
10260;SDS011;5175;42.606;23.388;2023-12-28T00:36:08;7.30;;;4.23;;
10260;SDS011;5175;42.606;23.388;2023-12-28T00:38:36;5.13;;;3.67;;
10260;SDS011;5175;42.606;23.388;2023-12-28T00:41:03;5.30;;;3.43;;
10260;SDS011;5175;42.606;23.388;2023-12-28T00:43:30;4.37;;;3.53;;
10260;SDS011;5175;42.606;23.388;2023-12-28T00:45:57;7.07;;;3.63;;
10260;SDS011;5175;42.606;23.388;2023-12-28T00:48:24;4.77;;;3.90;;
10260;SDS011;5175;42.606;23.388;2023-12-28T00:50:50;4.87;;;4.00;;
10260;SDS011;5175;42.606;23.388;2023-12-28T00:53:17;5.70;;;4.00;;
10260;SDS011;5175;42.606;23.388;2023-12-28T00:55:46;6.07;;;4.00;;
10260;SDS011;5175;42.606;23.388;2023-12-28T00:58:13;5.07;;;4.57;;
10260;SDS011;5175;42.606;23.388;2023-12-28T01:00:40;6.70;;;5.10;;
10260;SDS011;5175;42.606;23.388;2023-12-28T01:03:06;4.00;;;3.33;;
10260;SDS011;5175;42.606;23.388;2023-12-28T01:05:33;5.10;;;3.57;;
10260;SDS011;5175;42.606;23.388;2023-12-28T01:08:00;4.27;;;3.50;;
10260;SDS011;5175;42.606;23.388;2023-12-28T01:10:27;4.87;;;3.83;;
10260;SDS011;5175;42.606;23.388;2023-12-28T01:12:55;5.63;;;4.20;;
10260;SDS011;5175;42.606;23.388;2023-12-28T01:15:21;8.70;;;4.50;;
10260;SDS011;5175;42.606;23.388;2023-12-28T01:17:48;5.83;;;4.83;;
10260;SDS011;5175;42.606;23.388;2023-12-28T01:20:14;5.33;;;3.93;;
10260;SDS011;5175;42.606;23.388;2023-12-28T01:22:41;7.73;;;4.67;;
10260;SDS011;5175;42.606;23.388;2023-12-28T01:25:08;5.23;;;4.10;;
10260;SDS011;5175;42.606;23.388;2023-12-28T01:27:35;5.07;;;4.50;;
10260;SDS011;5175;42.606;23.388;2023-12-28T01:30:03;6.90;;;4.67;;
10260;SDS011;5175;42.606;23.388;2023-12-28T01:32:30;6.83;;;5.43;;
10260;SDS011;5175;42.606;23.388;2023-12-28T01:34:57;9.67;;;7.00;;
10260;SDS011;5175;42.606;23.388;2023-12-28T01:37:24;5.57;;;4.43;;
10260;SDS011;5175;42.606;23.388;2023-12-28T01:39:51;7.27;;;4.10;;
10260;SDS011;5175;42.606;23.388;2023-12-28T01:42:18;4.20;;;3.73;;
10260;SDS011;5175;42.606;23.388;2023-12-28T01:44:44;6.17;;;4.10;;
10260;SDS011;5175;42.606;23.388;2023-12-28T01:47:13;5.10;;;4.10;;
10260;SDS011;5175;42.606;23.388;2023-12-28T01:49:40;5.73;;;4.90;;
10260;SDS011;5175;42.606;23.388;2023-12-28T01:52:07;5.70;;;4.90;;
10260;SDS011;5175;42.606;23.388;2023-12-28T01:54:34;7.07;;;4.40;;
10260;SDS011;5175;42.606;23.388;2023-12-28T01:57:02;6.77;;;5.13;;
10260;SDS011;5175;42.606;23.388;2023-12-28T01:59:30;6.33;;;4.50;;
10260;SDS011;5175;42.606;23.388;2023-12-28T02:01:57;7.03;;;4.37;;
10260;SDS011;5175;42.606;23.388;2023-12-28T02:04:26;6.27;;;4.47;;
10260;SDS011;5175;42.606;23.388;2023-12-28T02:06:54;6.60;;;4.83;;
10260;SDS011;5175;42.606;23.388;2023-12-28T02:09:23;6.67;;;4.90;;
10260;SDS011;5175;42.606;23.388;2023-12-28T02:11:50;6.83;;;5.10;;
10260;SDS011;5175;42.606;23.388;2023-12-28T02:14:17;8.50;;;6.10;;
10260;SDS011;5175;42.606;23.388;2023-12-28T02:16:46;8.03;;;5.73;;
10260;SDS011;5175;42.606;23.388;2023-12-28T02:19:17;7.33;;;5.77;;
10260;SDS011;5175;42.606;23.388;2023-12-28T02:21:52;7.83;;;5.83;;
10260;SDS011;5175;42.606;23.388;2023-12-28T02:24:21;7.37;;;6.00;;
10260;SDS011;5175;42.606;23.388;2023-12-28T02:26:49;6.97;;;5.50;;
10260;SDS011;5175;42.606;23.388;2023-12-28T02:29:16;7.27;;;5.90;;
10260;SDS011;5175;42.606;23.388;2023-12-28T02:31:45;7.53;;;6.20;;
10260;SDS011;5175;42.606;23.388;2023-12-28T02:34:16;8.43;;;6.40;;
10260;SDS011;5175;42.606;23.388;2023-12-28T02:36:49;8.87;;;5.97;;
10260;SDS011;5175;42.606;23.388;2023-12-28T02:39:17;7.47;;;5.80;;
10260;SDS011;5175;42.606;23.388;2023-12-28T02:41:46;8.73;;;6.20;;
10260;SDS011;5175;42.606;23.388;2023-12-28T02:44:14;8.03;;;5.60;;
10260;SDS011;5175;42.606;23.388;2023-12-28T02:46:41;10.10;;;6.43;;
10260;SDS011;5175;42.606;23.388;2023-12-28T02:49:08;8.87;;;6.80;;
10260;SDS011;5175;42.606;23.388;2023-12-28T02:51:37;9.60;;;6.90;;
10260;SDS011;5175;42.606;23.388;2023-12-28T02:54:03;11.97;;;7.27;;
10260;SDS011;5175;42.606;23.388;2023-12-28T02:56:30;6.63;;;5.30;;
10260;SDS011;5175;42.606;23.388;2023-12-28T02:58:57;8.07;;;6.20;;
10260;SDS011;5175;42.606;23.388;2023-12-28T03:01:26;7.67;;;6.47;;
10260;SDS011;5175;42.606;23.388;2023-12-28T03:03:53;8.37;;;6.00;;
10260;SDS011;5175;42.606;23.388;2023-12-28T03:06:20;10.70;;;6.50;;
10260;SDS011;5175;42.606;23.388;2023-12-28T03:08:47;9.10;;;6.10;;
10260;SDS011;5175;42.606;23.388;2023-12-28T03:11:14;8.23;;;5.57;;
10260;SDS011;5175;42.606;23.388;2023-12-28T03:13:41;10.60;;;5.60;;
10260;SDS011;5175;42.606;23.388;2023-12-28T03:16:07;9.53;;;5.70;;
10260;SDS011;5175;42.606;23.388;2023-12-28T03:18:35;11.00;;;6.97;;
10260;SDS011;5175;42.606;23.388;2023-12-28T03:21:02;11.50;;;6.80;;
10260;SDS011;5175;42.606;23.388;2023-12-28T03:23:29;7.60;;;5.10;;
10260;SDS011;5175;42.606;23.388;2023-12-28T03:25:56;8.60;;;4.87;;
10260;SDS011;5175;42.606;23.388;2023-12-28T03:28:22;8.77;;;5.17;;
10260;SDS011;5175;42.606;23.388;2023-12-28T03:30:49;6.63;;;4.87;;
10260;SDS011;5175;42.606;23.388;2023-12-28T03:33:16;7.87;;;5.07;;
10260;SDS011;5175;42.606;23.388;2023-12-28T03:35:44;7.37;;;5.27;;
10260;SDS011;5175;42.606;23.388;2023-12-28T03:38:11;12.00;;;8.73;;
10260;SDS011;5175;42.606;23.388;2023-12-28T03:40:38;8.97;;;7.00;;
10260;SDS011;5175;42.606;23.388;2023-12-28T03:43:04;6.03;;;5.30;;
10260;SDS011;5175;42.606;23.388;2023-12-28T03:45:31;6.20;;;4.93;;
10260;SDS011;5175;42.606;23.388;2023-12-28T03:47:58;7.87;;;5.90;;
10260;SDS011;5175;42.606;23.388;2023-12-28T03:50:24;7.17;;;5.40;;
10260;SDS011;5175;42.606;23.388;2023-12-28T03:52:52;11.67;;;6.00;;
10260;SDS011;5175;42.606;23.388;2023-12-28T03:55:19;5.43;;;4.47;;
10260;SDS011;5175;42.606;23.388;2023-12-28T03:57:46;5.00;;;4.13;;
10260;SDS011;5175;42.606;23.388;2023-12-28T04:00:13;6.10;;;4.63;;
10260;SDS011;5175;42.606;23.388;2023-12-28T04:02:41;4.73;;;3.73;;
10260;SDS011;5175;42.606;23.388;2023-12-28T04:05:08;5.43;;;3.60;;
10260;SDS011;5175;42.606;23.388;2023-12-28T04:07:34;4.50;;;3.63;;
10260;SDS011;5175;42.606;23.388;2023-12-28T04:10:03;4.30;;;3.70;;
10260;SDS011;5175;42.606;23.388;2023-12-28T04:12:30;4.57;;;3.20;;
10260;SDS011;5175;42.606;23.388;2023-12-28T04:14:56;5.17;;;3.37;;
10260;SDS011;5175;42.606;23.388;2023-12-28T04:17:23;4.63;;;3.70;;
10260;SDS011;5175;42.606;23.388;2023-12-28T04:19:50;7.83;;;5.23;;
10260;SDS011;5175;42.606;23.388;2023-12-28T04:22:17;8.47;;;5.20;;
10260;SDS011;5175;42.606;23.388;2023-12-28T04:24:43;6.70;;;4.47;;
10260;SDS011;5175;42.606;23.388;2023-12-28T04:27:11;5.63;;;4.70;;
10260;SDS011;5175;42.606;23.388;2023-12-28T04:29:38;5.87;;;4.67;;
10260;SDS011;5175;42.606;23.388;2023-12-28T04:32:05;6.77;;;4.87;;
10260;SDS011;5175;42.606;23.388;2023-12-28T04:34:32;8.03;;;4.70;;
10260;SDS011;5175;42.606;23.388;2023-12-28T04:36:59;6.53;;;4.30;;
10260;SDS011;5175;42.606;23.388;2023-12-28T04:39:25;6.90;;;4.10;;
10260;SDS011;5175;42.606;23.388;2023-12-28T04:41:52;5.27;;;4.50;;
10260;SDS011;5175;42.606;23.388;2023-12-28T04:44:21;5.37;;;4.27;;
10260;SDS011;5175;42.606;23.388;2023-12-28T04:46:47;4.87;;;3.90;;
10260;SDS011;5175;42.606;23.388;2023-12-28T04:49:14;6.90;;;4.50;;
10260;SDS011;5175;42.606;23.388;2023-12-28T04:51:44;5.20;;;4.23;;
10260;SDS011;5175;42.606;23.388;2023-12-28T04:54:11;4.30;;;3.60;;
10260;SDS011;5175;42.606;23.388;2023-12-28T04:56:37;6.13;;;3.97;;
10260;SDS011;5175;42.606;23.388;2023-12-28T04:59:04;4.77;;;4.00;;
10260;SDS011;5175;42.606;23.388;2023-12-28T05:01:32;4.60;;;3.67;;
10260;SDS011;5175;42.606;23.388;2023-12-28T05:03:59;4.57;;;4.07;;
10260;SDS011;5175;42.606;23.388;2023-12-28T05:06:27;5.07;;;3.43;;
10260;SDS011;5175;42.606;23.388;2023-12-28T05:08:54;5.50;;;3.80;;
10260;SDS011;5175;42.606;23.388;2023-12-28T05:11:21;5.70;;;3.67;;
10260;SDS011;5175;42.606;23.388;2023-12-28T05:13:47;5.63;;;4.03;;
10260;SDS011;5175;42.606;23.388;2023-12-28T05:16:14;11.77;;;7.03;;
10260;SDS011;5175;42.606;23.388;2023-12-28T05:18:42;11.23;;;7.37;;
10260;SDS011;5175;42.606;23.388;2023-12-28T05:21:09;7.93;;;5.83;;
10260;SDS011;5175;42.606;23.388;2023-12-28T05:23:36;7.10;;;4.87;;
10260;SDS011;5175;42.606;23.388;2023-12-28T05:26:02;6.17;;;4.33;;
10260;SDS011;5175;42.606;23.388;2023-12-28T05:28:29;6.80;;;4.97;;
10260;SDS011;5175;42.606;23.388;2023-12-28T05:30:56;6.30;;;5.10;;
10260;SDS011;5175;42.606;23.388;2023-12-28T05:33:24;6.47;;;4.90;;
10260;SDS011;5175;42.606;23.388;2023-12-28T05:35:52;6.43;;;5.07;;
10260;SDS011;5175;42.606;23.388;2023-12-28T05:38:19;7.33;;;5.67;;
10260;SDS011;5175;42.606;23.388;2023-12-28T05:40:45;7.57;;;5.40;;
10260;SDS011;5175;42.606;23.388;2023-12-28T05:43:12;7.60;;;5.60;;
10260;SDS011;5175;42.606;23.388;2023-12-28T05:45:39;8.17;;;5.57;;
10260;SDS011;5175;42.606;23.388;2023-12-28T05:48:05;6.70;;;4.37;;
10260;SDS011;5175;42.606;23.388;2023-12-28T05:50:32;222.60;;;17.20;;
10260;SDS011;5175;42.606;23.388;2023-12-28T05:53:00;6.47;;;4.93;;
10260;SDS011;5175;42.606;23.388;2023-12-28T05:55:27;8.40;;;5.53;;
10260;SDS011;5175;42.606;23.388;2023-12-28T05:57:54;7.13;;;5.07;;
10260;SDS011;5175;42.606;23.388;2023-12-28T06:00:21;6.67;;;5.30;;
10260;SDS011;5175;42.606;23.388;2023-12-28T06:02:48;8.07;;;6.10;;
10260;SDS011;5175;42.606;23.388;2023-12-28T06:05:16;8.00;;;5.50;;
10260;SDS011;5175;42.606;23.388;2023-12-28T06:07:43;9.47;;;5.97;;
10260;SDS011;5175;42.606;23.388;2023-12-28T06:10:11;9.43;;;7.00;;
10260;SDS011;5175;42.606;23.388;2023-12-28T06:12:38;9.47;;;6.53;;
10260;SDS011;5175;42.606;23.388;2023-12-28T06:15:05;8.80;;;6.40;;
10260;SDS011;5175;42.606;23.388;2023-12-28T06:17:32;7.27;;;6.33;;
10260;SDS011;5175;42.606;23.388;2023-12-28T06:19:59;13.20;;;8.10;;
10260;SDS011;5175;42.606;23.388;2023-12-28T06:22:26;11.57;;;7.80;;
10260;SDS011;5175;42.606;23.388;2023-12-28T06:24:52;10.97;;;8.13;;
10260;SDS011;5175;42.606;23.388;2023-12-28T06:27:21;8.87;;;6.50;;
10260;SDS011;5175;42.606;23.388;2023-12-28T06:29:48;9.03;;;6.80;;
10260;SDS011;5175;42.606;23.388;2023-12-28T06:32:15;9.33;;;5.30;;
10260;SDS011;5175;42.606;23.388;2023-12-28T06:34:42;7.40;;;5.67;;
10260;SDS011;5175;42.606;23.388;2023-12-28T06:37:08;7.73;;;6.63;;
10260;SDS011;5175;42.606;23.388;2023-12-28T06:39:35;8.63;;;6.90;;
10260;SDS011;5175;42.606;23.388;2023-12-28T06:42:02;9.10;;;6.67;;
10260;SDS011;5175;42.606;23.388;2023-12-28T06:44:30;7.40;;;6.33;;
10260;SDS011;5175;42.606;23.388;2023-12-28T06:46:57;8.93;;;6.33;;
10260;SDS011;5175;42.606;23.388;2023-12-28T06:49:24;10.53;;;6.90;;
10260;SDS011;5175;42.606;23.388;2023-12-28T06:51:51;7.23;;;5.83;;
10260;SDS011;5175;42.606;23.388;2023-12-28T06:54:17;9.23;;;7.30;;
10260;SDS011;5175;42.606;23.388;2023-12-28T06:56:44;8.20;;;6.47;;
10260;SDS011;5175;42.606;23.388;2023-12-28T06:59:11;9.27;;;6.90;;
10260;SDS011;5175;42.606;23.388;2023-12-28T07:01:39;8.37;;;6.73;;
10260;SDS011;5175;42.606;23.388;2023-12-28T07:04:06;8.90;;;6.30;;
10260;SDS011;5175;42.606;23.388;2023-12-28T07:06:32;7.97;;;6.23;;
10260;SDS011;5175;42.606;23.388;2023-12-28T07:08:59;7.00;;;5.93;;
10260;SDS011;5175;42.606;23.388;2023-12-28T07:11:26;6.73;;;5.33;;
10260;SDS011;5175;42.606;23.388;2023-12-28T07:13:52;8.80;;;5.90;;
10260;SDS011;5175;42.606;23.388;2023-12-28T07:16:18;6.67;;;5.50;;
10260;SDS011;5175;42.606;23.388;2023-12-28T07:18:46;7.67;;;6.07;;
10260;SDS011;5175;42.606;23.388;2023-12-28T07:21:13;7.43;;;6.10;;
10260;SDS011;5175;42.606;23.388;2023-12-28T07:23:40;9.27;;;6.60;;
10260;SDS011;5175;42.606;23.388;2023-12-28T07:26:07;10.67;;;6.77;;
10260;SDS011;5175;42.606;23.388;2023-12-28T07:28:34;8.40;;;5.97;;
10260;SDS011;5175;42.606;23.388;2023-12-28T07:31:00;7.07;;;5.73;;
10260;SDS011;5175;42.606;23.388;2023-12-28T07:33:27;6.63;;;6.00;;
10260;SDS011;5175;42.606;23.388;2023-12-28T07:35:55;7.10;;;5.97;;
10260;SDS011;5175;42.606;23.388;2023-12-28T07:38:24;7.00;;;5.47;;
10260;SDS011;5175;42.606;23.388;2023-12-28T07:40:51;7.97;;;4.80;;
10260;SDS011;5175;42.606;23.388;2023-12-28T07:43:18;6.50;;;5.30;;
10260;SDS011;5175;42.606;23.388;2023-12-28T07:45:44;8.23;;;5.20;;
10260;SDS011;5175;42.606;23.388;2023-12-28T07:48:11;5.10;;;4.60;;
10260;SDS011;5175;42.606;23.388;2023-12-28T07:50:38;6.20;;;5.03;;
10260;SDS011;5175;42.606;23.388;2023-12-28T07:53:06;6.03;;;5.17;;
10260;SDS011;5175;42.606;23.388;2023-12-28T07:55:33;6.43;;;5.60;;
10260;SDS011;5175;42.606;23.388;2023-12-28T07:57:59;5.73;;;5.13;;
10260;SDS011;5175;42.606;23.388;2023-12-28T08:00:26;7.27;;;5.13;;
10260;SDS011;5175;42.606;23.388;2023-12-28T08:02:53;7.57;;;5.43;;
10260;SDS011;5175;42.606;23.388;2023-12-28T08:05:19;6.63;;;5.30;;
10260;SDS011;5175;42.606;23.388;2023-12-28T08:07:46;6.67;;;5.80;;
10260;SDS011;5175;42.606;23.388;2023-12-28T08:10:14;6.67;;;5.80;;
10260;SDS011;5175;42.606;23.388;2023-12-28T08:12:41;8.57;;;5.47;;
10260;SDS011;5175;42.606;23.388;2023-12-28T08:15:08;7.77;;;5.83;;
10260;SDS011;5175;42.606;23.388;2023-12-28T08:17:35;7.53;;;5.77;;
10260;SDS011;5175;42.606;23.388;2023-12-28T08:20:03;7.60;;;5.87;;
10260;SDS011;5175;42.606;23.388;2023-12-28T08:22:31;7.70;;;6.23;;
10260;SDS011;5175;42.606;23.388;2023-12-28T08:24:57;7.40;;;5.73;;
10260;SDS011;5175;42.606;23.388;2023-12-28T08:27:26;9.63;;;6.43;;
10260;SDS011;5175;42.606;23.388;2023-12-28T08:29:53;6.53;;;5.70;;
10260;SDS011;5175;42.606;23.388;2023-12-28T08:32:19;9.23;;;5.93;;
10260;SDS011;5175;42.606;23.388;2023-12-28T08:34:46;8.10;;;5.87;;
10260;SDS011;5175;42.606;23.388;2023-12-28T08:37:14;8.70;;;6.20;;
10260;SDS011;5175;42.606;23.388;2023-12-28T08:39:41;9.90;;;6.57;;
10260;SDS011;5175;42.606;23.388;2023-12-28T08:42:07;8.53;;;6.37;;
10260;SDS011;5175;42.606;23.388;2023-12-28T08:44:35;9.77;;;7.70;;
10260;SDS011;5175;42.606;23.388;2023-12-28T08:47:02;10.57;;;8.73;;
10260;SDS011;5175;42.606;23.388;2023-12-28T08:49:29;11.83;;;8.13;;
10260;SDS011;5175;42.606;23.388;2023-12-28T08:51:56;9.83;;;8.00;;
10260;SDS011;5175;42.606;23.388;2023-12-28T08:54:22;10.13;;;8.47;;
10260;SDS011;5175;42.606;23.388;2023-12-28T08:56:49;10.00;;;8.43;;
10260;SDS011;5175;42.606;23.388;2023-12-28T08:59:16;11.53;;;8.57;;
10260;SDS011;5175;42.606;23.388;2023-12-28T09:01:44;10.67;;;8.47;;
10260;SDS011;5175;42.606;23.388;2023-12-28T09:04:10;15.17;;;11.93;;
10260;SDS011;5175;42.606;23.388;2023-12-28T09:06:39;18.80;;;13.70;;
10260;SDS011;5175;42.606;23.388;2023-12-28T09:09:05;17.77;;;14.47;;
10260;SDS011;5175;42.606;23.388;2023-12-28T09:11:32;17.50;;;14.07;;
10260;SDS011;5175;42.606;23.388;2023-12-28T09:13:59;16.00;;;14.30;;
10260;SDS011;5175;42.606;23.388;2023-12-28T09:16:26;16.10;;;14.40;;
10260;SDS011;5175;42.606;23.388;2023-12-28T09:18:54;18.83;;;14.17;;
10260;SDS011;5175;42.606;23.388;2023-12-28T09:21:22;17.13;;;14.43;;
10260;SDS011;5175;42.606;23.388;2023-12-28T09:23:48;20.53;;;15.07;;
10260;SDS011;5175;42.606;23.388;2023-12-28T09:26:15;17.27;;;14.37;;
10260;SDS011;5175;42.606;23.388;2023-12-28T09:28:43;18.17;;;14.50;;
10260;SDS011;5175;42.606;23.388;2023-12-28T09:31:10;17.40;;;14.30;;
10260;SDS011;5175;42.606;23.388;2023-12-28T09:33:37;20.80;;;14.87;;
10260;SDS011;5175;42.606;23.388;2023-12-28T09:36:05;20.10;;;14.93;;
10260;SDS011;5175;42.606;23.388;2023-12-28T09:38:33;18.93;;;15.80;;
10260;SDS011;5175;42.606;23.388;2023-12-28T09:41:11;22.17;;;17.43;;
10260;SDS011;5175;42.606;23.388;2023-12-28T09:43:41;20.50;;;17.40;;
10260;SDS011;5175;42.606;23.388;2023-12-28T09:46:18;23.07;;;17.83;;
10260;SDS011;5175;42.606;23.388;2023-12-28T09:48:44;19.87;;;17.57;;
10260;SDS011;5175;42.606;23.388;2023-12-28T09:51:13;20.13;;;16.80;;
10260;SDS011;5175;42.606;23.388;2023-12-28T09:53:40;19.97;;;17.27;;
10260;SDS011;5175;42.606;23.388;2023-12-28T09:56:06;23.47;;;18.17;;
10260;SDS011;5175;42.606;23.388;2023-12-28T09:58:34;19.57;;;17.33;;
10260;SDS011;5175;42.606;23.388;2023-12-28T10:01:02;22.37;;;18.30;;
10260;SDS011;5175;42.606;23.388;2023-12-28T10:03:31;22.20;;;18.50;;
10260;SDS011;5175;42.606;23.388;2023-12-28T10:05:58;22.33;;;18.80;;
10260;SDS011;5175;42.606;23.388;2023-12-28T10:08:26;21.97;;;18.40;;
10260;SDS011;5175;42.606;23.388;2023-12-28T10:10:53;21.87;;;17.40;;
10260;SDS011;5175;42.606;23.388;2023-12-28T10:13:20;22.63;;;18.07;;
10260;SDS011;5175;42.606;23.388;2023-12-28T10:15:47;19.53;;;17.40;;
10260;SDS011;5175;42.606;23.388;2023-12-28T10:18:16;21.40;;;18.00;;
10260;SDS011;5175;42.606;23.388;2023-12-28T10:20:48;20.37;;;18.07;;
10260;SDS011;5175;42.606;23.388;2023-12-28T10:23:15;21.13;;;18.30;;
10260;SDS011;5175;42.606;23.388;2023-12-28T10:25:44;20.10;;;17.90;;
10260;SDS011;5175;42.606;23.388;2023-12-28T10:28:11;21.67;;;18.07;;
10260;SDS011;5175;42.606;23.388;2023-12-28T10:30:38;23.17;;;18.17;;
10260;SDS011;5175;42.606;23.388;2023-12-28T10:33:06;22.80;;;18.20;;
10260;SDS011;5175;42.606;23.388;2023-12-28T10:35:33;20.87;;;17.67;;
10260;SDS011;5175;42.606;23.388;2023-12-28T10:38:00;21.73;;;18.63;;
10260;SDS011;5175;42.606;23.388;2023-12-28T10:40:28;22.53;;;18.40;;
10260;SDS011;5175;42.606;23.388;2023-12-28T10:42:58;22.10;;;18.03;;
10260;SDS011;5175;42.606;23.388;2023-12-28T10:45:28;23.10;;;16.67;;
10260;SDS011;5175;42.606;23.388;2023-12-28T10:48:01;19.87;;;17.23;;
10260;SDS011;5175;42.606;23.388;2023-12-28T10:50:35;20.07;;;16.47;;
10260;SDS011;5175;42.606;23.388;2023-12-28T10:53:08;18.67;;;16.43;;
10260;SDS011;5175;42.606;23.388;2023-12-28T10:55:47;20.50;;;17.03;;
10260;SDS011;5175;42.606;23.388;2023-12-28T10:58:21;20.97;;;17.10;;
10260;SDS011;5175;42.606;23.388;2023-12-28T11:00:56;24.10;;;17.13;;
10260;SDS011;5175;42.606;23.388;2023-12-28T11:03:29;22.77;;;18.37;;
10260;SDS011;5175;42.606;23.388;2023-12-28T11:05:58;21.30;;;17.47;;
10260;SDS011;5175;42.606;23.388;2023-12-28T11:08:26;27.23;;;18.77;;
10260;SDS011;5175;42.606;23.388;2023-12-28T11:10:54;24.70;;;19.07;;
10260;SDS011;5175;42.606;23.388;2023-12-28T11:13:24;23.10;;;17.73;;
10260;SDS011;5175;42.606;23.388;2023-12-28T11:15:51;19.97;;;17.47;;
10260;SDS011;5175;42.606;23.388;2023-12-28T11:18:18;23.03;;;18.57;;
10260;SDS011;5175;42.606;23.388;2023-12-28T11:20:46;25.17;;;17.90;;
10260;SDS011;5175;42.606;23.388;2023-12-28T11:23:14;23.33;;;18.23;;
10260;SDS011;5175;42.606;23.388;2023-12-28T11:25:41;22.83;;;17.07;;
10260;SDS011;5175;42.606;23.388;2023-12-28T11:28:09;21.03;;;17.83;;
10260;SDS011;5175;42.606;23.388;2023-12-28T11:30:37;25.00;;;18.07;;
10260;SDS011;5175;42.606;23.388;2023-12-28T11:33:04;24.00;;;18.60;;
10260;SDS011;5175;42.606;23.388;2023-12-28T11:35:34;23.67;;;18.60;;
10260;SDS011;5175;42.606;23.388;2023-12-28T11:38:03;22.47;;;18.73;;
10260;SDS011;5175;42.606;23.388;2023-12-28T11:40:39;26.70;;;17.93;;
10260;SDS011;5175;42.606;23.388;2023-12-28T11:43:14;22.60;;;18.57;;
10260;SDS011;5175;42.606;23.388;2023-12-28T11:45:48;25.20;;;18.67;;
10260;SDS011;5175;42.606;23.388;2023-12-28T11:48:22;22.47;;;17.93;;
10260;SDS011;5175;42.606;23.388;2023-12-28T11:50:51;21.37;;;19.07;;
10260;SDS011;5175;42.606;23.388;2023-12-28T11:53:20;24.10;;;18.70;;
10260;SDS011;5175;42.606;23.388;2023-12-28T11:55:48;22.57;;;18.47;;
10260;SDS011;5175;42.606;23.388;2023-12-28T11:58:15;24.40;;;17.53;;
10260;SDS011;5175;42.606;23.388;2023-12-28T12:00:42;23.17;;;18.07;;
10260;SDS011;5175;42.606;23.388;2023-12-28T12:03:11;18.83;;;16.63;;
10260;SDS011;5175;42.606;23.388;2023-12-28T12:05:38;23.73;;;17.37;;
10260;SDS011;5175;42.606;23.388;2023-12-28T12:08:05;19.17;;;16.90;;
10260;SDS011;5175;42.606;23.388;2023-12-28T12:10:35;21.77;;;17.57;;
10260;SDS011;5175;42.606;23.388;2023-12-28T12:13:02;23.43;;;17.53;;
10260;SDS011;5175;42.606;23.388;2023-12-28T12:15:29;19.87;;;17.27;;
10260;SDS011;5175;42.606;23.388;2023-12-28T12:17:56;20.30;;;16.90;;
10260;SDS011;5175;42.606;23.388;2023-12-28T12:20:24;20.80;;;16.57;;
10260;SDS011;5175;42.606;23.388;2023-12-28T12:22:51;19.10;;;16.70;;
10260;SDS011;5175;42.606;23.388;2023-12-28T12:25:18;20.40;;;16.60;;
10260;SDS011;5175;42.606;23.388;2023-12-28T12:27:45;18.23;;;16.33;;
10260;SDS011;5175;42.606;23.388;2023-12-28T12:30:12;23.03;;;17.20;;
10260;SDS011;5175;42.606;23.388;2023-12-28T12:32:39;21.23;;;16.37;;
10260;SDS011;5175;42.606;23.388;2023-12-28T12:35:08;25.70;;;16.93;;
10260;SDS011;5175;42.606;23.388;2023-12-28T12:37:37;20.47;;;16.93;;
10260;SDS011;5175;42.606;23.388;2023-12-28T12:40:04;24.00;;;16.67;;
10260;SDS011;5175;42.606;23.388;2023-12-28T12:42:32;19.40;;;15.77;;
10260;SDS011;5175;42.606;23.388;2023-12-28T12:44:59;18.40;;;16.10;;
10260;SDS011;5175;42.606;23.388;2023-12-28T12:47:25;18.87;;;15.90;;
10260;SDS011;5175;42.606;23.388;2023-12-28T12:49:59;25.87;;;17.63;;
10260;SDS011;5175;42.606;23.388;2023-12-28T12:52:26;23.43;;;18.20;;
10260;SDS011;5175;42.606;23.388;2023-12-28T12:54:55;21.47;;;17.43;;
10260;SDS011;5175;42.606;23.388;2023-12-28T12:57:23;22.27;;;16.90;;
10260;SDS011;5175;42.606;23.388;2023-12-28T12:59:51;23.13;;;16.63;;
10260;SDS011;5175;42.606;23.388;2023-12-28T13:02:18;22.87;;;17.97;;
10260;SDS011;5175;42.606;23.388;2023-12-28T13:04:44;21.37;;;16.20;;
10260;SDS011;5175;42.606;23.388;2023-12-28T13:07:11;21.50;;;17.27;;
10260;SDS011;5175;42.606;23.388;2023-12-28T13:09:38;21.77;;;17.07;;
10260;SDS011;5175;42.606;23.388;2023-12-28T13:12:06;23.00;;;17.40;;
10260;SDS011;5175;42.606;23.388;2023-12-28T13:14:34;20.33;;;17.10;;
10260;SDS011;5175;42.606;23.388;2023-12-28T13:17:00;21.77;;;17.37;;
10260;SDS011;5175;42.606;23.388;2023-12-28T13:19:27;19.70;;;16.23;;
10260;SDS011;5175;42.606;23.388;2023-12-28T13:21:54;25.77;;;17.53;;
10260;SDS011;5175;42.606;23.388;2023-12-28T13:24:21;19.83;;;17.30;;
10260;SDS011;5175;42.606;23.388;2023-12-28T13:26:48;22.20;;;17.53;;
10260;SDS011;5175;42.606;23.388;2023-12-28T13:29:16;22.10;;;17.40;;
10260;SDS011;5175;42.606;23.388;2023-12-28T13:31:43;21.70;;;17.97;;
10260;SDS011;5175;42.606;23.388;2023-12-28T13:34:12;20.93;;;15.93;;
10260;SDS011;5175;42.606;23.388;2023-12-28T13:36:39;24.53;;;16.50;;
10260;SDS011;5175;42.606;23.388;2023-12-28T13:39:06;21.17;;;16.93;;
10260;SDS011;5175;42.606;23.388;2023-12-28T13:41:36;19.77;;;16.73;;
10260;SDS011;5175;42.606;23.388;2023-12-28T13:44:03;22.50;;;17.70;;
10260;SDS011;5175;42.606;23.388;2023-12-28T13:46:36;21.07;;;18.10;;
10260;SDS011;5175;42.606;23.388;2023-12-28T13:49:03;24.47;;;19.57;;
10260;SDS011;5175;42.606;23.388;2023-12-28T13:51:30;22.17;;;17.57;;
10260;SDS011;5175;42.606;23.388;2023-12-28T13:53:56;25.80;;;17.43;;
10260;SDS011;5175;42.606;23.388;2023-12-28T13:56:23;18.97;;;16.50;;
10260;SDS011;5175;42.606;23.388;2023-12-28T13:58:50;33.80;;;24.77;;
10260;SDS011;5175;42.606;23.388;2023-12-28T14:01:16;22.80;;;18.43;;
10260;SDS011;5175;42.606;23.388;2023-12-28T14:03:45;23.33;;;17.43;;
10260;SDS011;5175;42.606;23.388;2023-12-28T14:06:14;29.10;;;22.10;;
10260;SDS011;5175;42.606;23.388;2023-12-28T14:08:40;29.60;;;21.33;;
10260;SDS011;5175;42.606;23.388;2023-12-28T14:11:07;28.80;;;21.93;;
10260;SDS011;5175;42.606;23.388;2023-12-28T14:13:34;37.17;;;25.13;;
10260;SDS011;5175;42.606;23.388;2023-12-28T14:16:02;39.73;;;29.97;;
10260;SDS011;5175;42.606;23.388;2023-12-28T14:18:29;32.70;;;25.87;;
10260;SDS011;5175;42.606;23.388;2023-12-28T14:20:57;35.67;;;25.40;;
10260;SDS011;5175;42.606;23.388;2023-12-28T14:23:25;33.27;;;25.07;;
10260;SDS011;5175;42.606;23.388;2023-12-28T14:25:52;37.47;;;28.80;;
10260;SDS011;5175;42.606;23.388;2023-12-28T14:28:20;29.60;;;23.70;;
10260;SDS011;5175;42.606;23.388;2023-12-28T14:30:49;28.17;;;21.47;;
10260;SDS011;5175;42.606;23.388;2023-12-28T14:33:16;27.10;;;20.90;;
10260;SDS011;5175;42.606;23.388;2023-12-28T14:35:43;20.17;;;16.20;;
10260;SDS011;5175;42.606;23.388;2023-12-28T14:38:11;18.57;;;14.47;;